createdAt,value
2022-11-25T00:01:14.341Z,89.14
2022-11-25T00:03:41.754Z,88.84
2022-11-25T00:06:14.138Z,88.82
2022-11-25T00:08:42.025Z,88.15
2022-11-25T00:11:09.290Z,88.70
2022-11-25T00:13:36.719Z,88.27
2022-11-25T00:16:04.645Z,88.61
2022-11-25T00:18:31.716Z,88.26
2022-11-25T00:20:58.892Z,88.43
2022-11-25T00:23:30.405Z,88.72
2022-11-25T00:26:09.893Z,88.88
2022-11-25T00:28:36.848Z,89.01
2022-11-25T00:31:08.032Z,88.70
2022-11-25T00:33:34.524Z,89.13
2022-11-25T00:36:02.615Z,88.51
2022-11-25T00:38:29.616Z,87.90
2022-11-25T00:41:15.172Z,88.11
2022-11-25T00:43:59.911Z,88.34
2022-11-25T00:46:26.313Z,87.97
2022-11-25T00:48:52.980Z,88.10
2022-11-25T00:51:19.402Z,87.38
2022-11-25T00:53:46.360Z,87.42
2022-11-25T00:56:15.686Z,87.79
2022-11-25T00:58:43.733Z,88.36
2022-11-25T01:01:11.070Z,88.36
2022-11-25T01:03:38.265Z,88.88
2022-11-25T01:06:06.481Z,89.17
2022-11-25T01:08:34.612Z,89.62
2022-11-25T01:11:03.704Z,89.73
2022-11-25T01:13:30.099Z,90.29
2022-11-25T01:15:56.467Z,90.26
2022-11-25T01:18:22.973Z,90.29
2022-11-25T01:20:49.315Z,90.63
2022-11-25T01:23:15.654Z,90.14
2022-11-25T01:25:42.000Z,90.77
2022-11-25T01:28:08.331Z,90.45
2022-11-25T01:30:39.744Z,90.54
2022-11-25T01:33:07.483Z,90.68
2022-11-25T01:35:37.140Z,90.77
2022-11-25T01:38:03.441Z,90.87
2022-11-25T01:40:29.873Z,90.69
2022-11-25T01:42:56.254Z,90.83
2022-11-25T01:45:32.540Z,91.00
2022-11-25T01:48:11.108Z,91.25
2022-11-25T01:50:37.851Z,91.15
2022-11-25T01:53:09.425Z,91.00
2022-11-25T01:55:39.027Z,91.29
2022-11-25T01:58:11.160Z,91.01
2022-11-25T02:00:38.031Z,90.88
2022-11-25T02:03:05.719Z,90.65
2022-11-25T02:05:50.936Z,90.55
2022-11-25T02:08:19.894Z,90.83
2022-11-25T02:10:46.520Z,90.32
2022-11-25T02:13:12.994Z,90.32
2022-11-25T02:15:39.431Z,90.67
2022-11-25T02:18:06.732Z,90.55
2022-11-25T02:20:33.442Z,90.46
2022-11-25T02:23:30.892Z,90.00
2022-11-25T02:25:57.789Z,90.48
2022-11-25T02:28:27.564Z,90.25
2022-11-25T02:30:54.555Z,90.46
2022-11-25T02:33:21.510Z,90.40
2022-11-25T02:35:49.872Z,90.13
2022-11-25T02:38:20.586Z,90.45
2022-11-25T02:41:10.782Z,90.41
2022-11-25T02:43:37.904Z,90.05
2022-11-25T02:46:10.014Z,90.55
2022-11-25T02:49:07.319Z,90.58
2022-11-25T02:51:27.954Z,90.41
2022-11-25T02:53:56.572Z,90.02
2022-11-25T02:56:26.336Z,89.25
2022-11-25T02:58:52.944Z,89.67
2022-11-25T03:01:19.626Z,89.68
2022-11-25T03:03:46.048Z,89.92
2022-11-25T03:06:12.426Z,89.70
2022-11-25T03:08:38.914Z,89.81
2022-11-25T03:11:06.276Z,90.08
2022-11-25T03:13:32.720Z,90.04
2022-11-25T03:15:59.091Z,89.79
2022-11-25T03:18:25.665Z,89.92
2022-11-25T03:20:54.046Z,89.04
2022-11-25T03:23:20.819Z,88.52
2022-11-25T03:25:47.196Z,88.54
2022-11-25T03:28:13.712Z,88.55
2022-11-25T03:30:40.786Z,88.43
2022-11-25T03:33:07.125Z,89.04
2022-11-25T03:35:33.488Z,88.94
2022-11-25T03:37:59.887Z,88.90
2022-11-25T03:40:26.285Z,89.50
2022-11-25T03:42:52.627Z,89.51
2022-11-25T03:45:19.008Z,88.87
2022-11-25T03:47:46.082Z,88.71
2022-11-25T03:50:14.691Z,87.80
2022-11-25T03:52:41.304Z,88.12
2022-11-25T03:55:08.186Z,86.87
2022-11-25T03:57:35.043Z,87.10
2022-11-25T04:00:01.992Z,87.21
2022-11-25T04:02:28.593Z,85.88
2022-11-25T04:04:55.024Z,84.42
2022-11-25T04:07:21.418Z,83.50
2022-11-25T04:09:47.992Z,83.84
2022-11-25T04:12:32.767Z,83.58
2022-11-25T04:14:59.182Z,83.83
2022-11-25T04:17:25.551Z,84.09
2022-11-25T04:19:51.997Z,83.54
2022-11-25T04:22:18.339Z,83.85
2022-11-25T04:24:44.716Z,83.29
2022-11-25T04:27:11.085Z,83.59
2022-11-25T04:29:37.448Z,83.12
2022-11-25T04:32:04.051Z,83.15
2022-11-25T04:34:30.444Z,83.69
2022-11-25T04:36:56.822Z,84.20
2022-11-25T04:39:23.168Z,84.52
2022-11-25T04:41:49.536Z,85.08
2022-11-25T04:44:15.888Z,85.27
2022-11-25T04:46:43.092Z,84.65
2022-11-25T04:49:11.039Z,83.57
2022-11-25T04:51:37.461Z,82.37
2022-11-25T04:54:03.911Z,83.00
2022-11-25T04:56:30.305Z,82.75
2022-11-25T04:59:14.968Z,82.88
2022-11-25T05:01:41.421Z,83.84
2022-11-25T05:04:07.857Z,86.01
2022-11-25T05:06:34.283Z,86.23
2022-11-25T05:09:00.658Z,87.00
2022-11-25T05:11:27.013Z,86.94
2022-11-25T05:13:53.466Z,87.46
2022-11-25T05:16:19.851Z,87.49
2022-11-25T05:18:46.230Z,88.18
2022-11-25T05:21:12.605Z,88.23
2022-11-25T05:23:39.008Z,88.60
2022-11-25T05:26:05.489Z,88.50
2022-11-25T05:28:31.925Z,88.93
2022-11-25T05:30:58.540Z,89.03
2022-11-25T05:33:25.006Z,89.03
2022-11-25T05:36:03.025Z,89.00
2022-11-25T05:38:30.140Z,89.07
2022-11-25T05:41:05.513Z,89.38
2022-11-25T05:43:32.404Z,89.46
2022-11-25T05:45:59.697Z,89.42
2022-11-25T05:48:26.110Z,89.69
2022-11-25T05:50:52.457Z,89.71
2022-11-25T05:53:18.920Z,89.59
2022-11-25T05:55:53.172Z,89.58
2022-11-25T05:58:19.510Z,89.24
2022-11-25T06:00:45.843Z,89.41
2022-11-25T06:03:12.422Z,89.61
2022-11-25T06:05:38.840Z,89.66
2022-11-25T06:08:05.255Z,89.38
2022-11-25T06:10:31.608Z,89.74
2022-11-25T06:12:58.004Z,89.54
2022-11-25T06:15:24.574Z,89.54
2022-11-25T06:17:50.978Z,89.43
2022-11-25T06:20:17.409Z,89.36
2022-11-25T06:22:43.769Z,89.21
2022-11-25T06:25:10.171Z,88.58
2022-11-25T06:28:04.450Z,89.08
2022-11-25T06:30:22.914Z,88.67
2022-11-25T06:32:49.272Z,88.57
2022-11-25T06:35:15.696Z,88.67
2022-11-25T06:37:42.157Z,89.05
2022-11-25T06:40:09.037Z,88.91
2022-11-25T06:42:38.092Z,89.27
2022-11-25T06:45:05.270Z,89.19
2022-11-25T06:47:31.815Z,89.04
2022-11-25T06:49:58.184Z,88.99
2022-11-25T06:52:24.593Z,88.91
2022-11-25T06:54:51.558Z,88.99
2022-11-25T06:57:19.288Z,89.16
2022-11-25T06:59:45.772Z,89.02
2022-11-25T07:02:12.515Z,89.14
2022-11-25T07:04:40.254Z,89.15
2022-11-25T07:07:07.617Z,89.09
2022-11-25T07:09:34.009Z,89.00
2022-11-25T07:12:00.463Z,88.92
2022-11-25T07:14:26.819Z,88.92
2022-11-25T07:16:53.640Z,89.06
2022-11-25T07:19:20.273Z,88.81
2022-11-25T07:21:46.955Z,88.57
2022-11-25T07:24:18.132Z,88.76
2022-11-25T07:26:45.045Z,88.80
2022-11-25T07:29:36.378Z,88.72
2022-11-25T07:32:03.391Z,88.62
2022-11-25T07:34:33.580Z,88.39
2022-11-25T07:36:59.923Z,88.35
2022-11-25T07:39:26.355Z,88.34
2022-11-25T07:41:53.908Z,88.55
2022-11-25T07:44:20.962Z,88.18
2022-11-25T07:46:49.072Z,88.48
2022-11-25T07:49:18.041Z,88.20
2022-11-25T07:51:53.793Z,88.45
2022-11-25T07:54:21.422Z,88.64
2022-11-25T07:56:48.695Z,87.86
2022-11-25T07:59:20.947Z,87.99
2022-11-25T08:01:50.488Z,88.10
2022-11-25T08:04:20.543Z,88.22
2022-11-25T08:06:49.301Z,88.27
2022-11-25T08:09:19.817Z,88.04
2022-11-25T08:11:48.761Z,88.04
2022-11-25T08:14:16.324Z,87.87
2022-11-25T08:16:43.090Z,88.79
2022-11-25T08:19:13.701Z,87.17
2022-11-25T08:21:40.400Z,86.72
2022-11-25T08:24:06.934Z,86.65
2022-11-25T08:26:37.500Z,86.65
2022-11-25T08:29:06.393Z,87.15
2022-11-25T08:31:36.232Z,86.41
2022-11-25T08:34:04.098Z,86.72
2022-11-25T08:36:30.896Z,87.07
2022-11-25T08:39:00.553Z,87.28
2022-11-25T08:41:30.469Z,87.00
2022-11-25T08:43:58.802Z,86.19
2022-11-25T08:46:29.057Z,86.81
2022-11-25T08:48:56.159Z,86.48
2022-11-25T08:51:26.315Z,86.65
2022-11-25T08:53:52.755Z,86.78
2022-11-25T08:56:25.689Z,87.18
2022-11-25T08:58:53.881Z,87.05
2022-11-25T09:01:20.975Z,86.77
2022-11-25T09:03:50.368Z,86.87
2022-11-25T09:06:18.328Z,87.09
2022-11-25T09:08:45.611Z,86.80
2022-11-25T09:11:12.438Z,87.14
2022-11-25T09:13:39.382Z,86.80
2022-11-25T09:16:07.063Z,87.10
2022-11-25T09:18:35.296Z,87.20
2022-11-25T09:21:11.093Z,86.81
2022-11-25T09:23:39.319Z,86.79
2022-11-25T09:26:07.055Z,86.90
2022-11-25T09:28:34.691Z,86.85
2022-11-25T09:31:08.013Z,86.72
2022-11-25T09:33:34.504Z,86.68
2022-11-25T09:36:01.908Z,87.05
2022-11-25T09:38:28.251Z,86.87
2022-11-25T09:41:01.489Z,86.38
2022-11-25T09:44:18.988Z,86.23
2022-11-25T09:46:59.973Z,86.36
2022-11-25T09:49:45.155Z,86.27
2022-11-25T09:52:30.380Z,86.43
2022-11-25T09:54:56.812Z,86.33
2022-11-25T09:57:28.962Z,86.14
2022-11-25T10:00:13.911Z,86.35
2022-11-25T10:03:11.463Z,85.41
2022-11-25T10:05:41.998Z,85.75
2022-11-25T10:08:25.201Z,85.74
2022-11-25T10:10:58.492Z,85.60
2022-11-25T10:13:34.303Z,85.07
2022-11-25T10:16:05.246Z,85.12
2022-11-25T10:18:42.322Z,84.99
2022-11-25T10:21:11.584Z,85.32
2022-11-25T10:23:39.817Z,85.19
2022-11-25T10:26:13.658Z,85.12
2022-11-25T10:28:44.601Z,85.37
2022-11-25T10:31:27.092Z,84.90
2022-11-25T10:33:57.252Z,84.46
2022-11-25T10:36:36.702Z,84.54
2022-11-25T10:39:11.466Z,84.50
2022-11-25T10:42:03.432Z,84.50
2022-11-25T10:44:33.902Z,84.33
2022-11-25T10:47:49.486Z,84.63
2022-11-25T10:50:36.352Z,84.29
2022-11-25T10:53:17.139Z,84.75
2022-11-25T10:56:09.946Z,84.08
2022-11-25T10:58:38.797Z,83.80
2022-11-25T11:01:16.686Z,83.60
2022-11-25T11:03:45.176Z,83.41
2022-11-25T11:06:36.036Z,83.37
2022-11-25T11:09:03.384Z,83.52
2022-11-25T11:11:30.269Z,83.19
2022-11-25T11:14:13.721Z,83.03
2022-11-25T11:16:52.212Z,83.45
2022-11-25T11:19:24.420Z,82.54
2022-11-25T11:21:51.182Z,82.47
2022-11-25T11:24:26.890Z,82.17
2022-11-25T11:27:21.389Z,82.46
2022-11-25T11:29:47.804Z,82.48
2022-11-25T11:32:23.791Z,82.54
2022-11-25T11:35:19.743Z,82.58
2022-11-25T11:37:52.510Z,82.36
2022-11-25T11:40:30.757Z,82.67
2022-11-25T11:43:06.130Z,82.77
2022-11-25T11:45:52.910Z,82.27
2022-11-25T11:48:39.623Z,82.25
2022-11-25T11:51:24.326Z,81.77
2022-11-25T11:53:56.355Z,81.99
2022-11-25T11:56:55.600Z,81.88
2022-11-25T11:59:34.354Z,81.88
2022-11-25T12:02:34.823Z,81.54
2022-11-25T12:05:10.106Z,81.05
2022-11-25T12:07:47.589Z,80.48
2022-11-25T12:10:13.927Z,80.81
2022-11-25T12:13:02.940Z,80.76
2022-11-25T12:15:56.939Z,81.15
2022-11-25T12:18:34.275Z,80.52
2022-11-25T12:21:05.414Z,81.16
2022-11-25T12:24:04.328Z,80.94
2022-11-25T12:26:52.127Z,80.94
2022-11-25T12:29:47.795Z,80.79
2022-11-25T12:32:42.193Z,80.01
2022-11-25T12:35:11.565Z,80.15
2022-11-25T12:37:46.513Z,80.33
2022-11-25T12:40:27.279Z,80.14
2022-11-25T12:43:01.250Z,79.98
2022-11-25T12:45:28.148Z,80.12
2022-11-25T12:47:54.625Z,80.00
2022-11-25T12:50:35.767Z,80.14
2022-11-25T12:53:13.065Z,79.34
2022-11-25T12:55:40.728Z,79.87
2022-11-25T12:58:10.134Z,79.47
2022-11-25T13:00:49.118Z,79.30
2022-11-25T13:04:06.463Z,79.54
2022-11-25T13:06:58.889Z,79.14
2022-11-25T13:09:53.942Z,79.37
2022-11-25T13:12:37.377Z,79.26
2022-11-25T13:15:27.746Z,79.72
2022-11-25T13:17:59.315Z,79.73
2022-11-25T13:20:28.552Z,80.06
2022-11-25T13:23:10.760Z,79.91
2022-11-25T13:25:40.450Z,80.12
2022-11-25T13:28:36.613Z,80.38
2022-11-25T13:31:24.643Z,80.08
2022-11-25T13:34:24.266Z,79.64
2022-11-25T13:36:53.066Z,79.93
2022-11-25T13:39:28.973Z,80.41
2022-11-25T13:42:20.376Z,80.14
2022-11-25T13:44:54.767Z,80.31
2022-11-25T13:47:45.408Z,80.42
2022-11-25T13:50:20.346Z,80.77
2022-11-25T13:52:59.045Z,80.76
2022-11-25T13:55:31.481Z,81.58
2022-11-25T13:58:03.783Z,81.72
2022-11-25T14:00:32.878Z,82.08
2022-11-25T14:03:18.163Z,82.37
2022-11-25T14:06:15.447Z,82.67
2022-11-25T14:09:02.981Z,82.91
2022-11-25T14:11:58.592Z,82.62
2022-11-25T14:14:48.053Z,82.73
2022-11-25T14:17:26.438Z,82.59
2022-11-25T14:20:14.748Z,81.99
2022-11-25T14:23:22.181Z,82.29
2022-11-25T14:25:57.429Z,82.41
2022-11-25T14:28:40.105Z,82.42
2022-11-25T14:31:11.038Z,82.35
2022-11-25T14:33:48.439Z,82.25
2022-11-25T14:36:21.580Z,82.62
2022-11-25T14:38:59.757Z,82.78
2022-11-25T14:41:37.874Z,82.58
2022-11-25T14:44:14.292Z,82.31
2022-11-25T14:46:55.079Z,82.13
2022-11-25T14:49:46.618Z,81.93
2022-11-25T14:52:10.773Z,82.84
2022-11-25T14:54:44.999Z,82.19
2022-11-25T14:57:11.686Z,82.31
2022-11-25T14:59:44.930Z,82.40
2022-11-25T15:02:35.590Z,82.96
2022-11-25T15:05:08.020Z,82.88
2022-11-25T15:07:34.516Z,82.29
2022-11-25T15:10:00.968Z,82.39
2022-11-25T15:12:32.330Z,82.61
2022-11-25T15:14:59.471Z,82.61
2022-11-25T15:17:31.328Z,82.60
2022-11-25T15:20:01.466Z,82.80
2022-11-25T15:22:28.449Z,83.03
2022-11-25T15:25:06.385Z,82.60
2022-11-25T15:27:33.056Z,83.06
2022-11-25T15:29:59.585Z,83.25
2022-11-25T15:32:29.797Z,82.88
2022-11-25T15:34:59.656Z,83.16
2022-11-25T15:37:26.435Z,83.05
2022-11-25T15:40:31.109Z,83.29
2022-11-25T15:43:04.195Z,83.23
2022-11-25T15:45:42.330Z,82.67
2022-11-25T15:48:27.224Z,82.81
2022-11-25T15:51:17.495Z,83.01
2022-11-25T15:53:46.798Z,83.20
2022-11-25T15:56:20.689Z,83.18
2022-11-25T15:58:47.101Z,83.29
2022-11-25T16:01:17.004Z,84.29
2022-11-25T16:03:44.920Z,83.67
2022-11-25T16:06:21.090Z,83.25
2022-11-25T16:08:57.673Z,83.25
2022-11-25T16:11:25.628Z,83.26
2022-11-25T16:13:53.433Z,83.26
2022-11-25T16:16:30.088Z,83.41
2022-11-25T16:19:02.851Z,82.80
2022-11-25T16:21:39.945Z,83.42
2022-11-25T16:24:06.405Z,82.38
2022-11-25T16:26:40.120Z,83.31
2022-11-25T16:29:18.331Z,83.35
2022-11-25T16:31:44.889Z,83.81
2022-11-25T16:34:17.211Z,83.69
2022-11-25T16:36:43.816Z,83.86
2022-11-25T16:39:10.247Z,84.57
2022-11-25T16:41:37.609Z,84.91
2022-11-25T16:44:24.407Z,85.03
2022-11-25T16:46:51.138Z,85.25
2022-11-25T16:49:20.125Z,84.96
2022-11-25T16:51:46.593Z,84.56
2022-11-25T16:54:13.017Z,85.09
2022-11-25T16:56:41.807Z,85.00
2022-11-25T16:59:17.318Z,85.24
2022-11-25T17:01:43.931Z,84.99
2022-11-25T17:04:15.157Z,85.06
2022-11-25T17:06:42.950Z,84.90
2022-11-25T17:09:09.298Z,85.38
2022-11-25T17:11:46.328Z,85.41
2022-11-25T17:14:33.627Z,85.42
2022-11-25T17:17:00.940Z,85.83
2022-11-25T17:19:27.427Z,85.60
2022-11-25T17:21:53.905Z,85.71
2022-11-25T17:24:25.196Z,85.69
2022-11-25T17:27:04.855Z,85.52
2022-11-25T17:29:39.856Z,85.27
2022-11-25T17:32:06.881Z,85.88
2022-11-25T17:34:37.947Z,86.17
2022-11-25T17:37:32.874Z,86.20
2022-11-25T17:39:59.469Z,86.20
2022-11-25T17:42:32.001Z,85.88
2022-11-25T17:44:58.813Z,85.69
2022-11-25T17:47:25.226Z,85.72
2022-11-25T17:49:51.992Z,85.82
2022-11-25T17:52:18.392Z,85.76
2022-11-25T17:54:44.751Z,86.09
2022-11-25T17:57:21.267Z,86.00
2022-11-25T17:59:47.894Z,86.04
2022-11-25T18:02:19.663Z,85.95
2022-11-25T18:04:46.693Z,85.86
2022-11-25T18:07:13.284Z,86.16
2022-11-25T18:09:39.901Z,85.71
2022-11-25T18:12:13.150Z,85.85
2022-11-25T18:14:42.719Z,85.98
2022-11-25T18:17:14.274Z,85.66
2022-11-25T18:19:40.698Z,85.72
2022-11-25T18:22:16.151Z,85.51
2022-11-25T18:24:43.367Z,86.09
2022-11-25T18:27:21.596Z,85.63
2022-11-25T18:29:48.409Z,85.80
2022-11-25T18:32:14.816Z,85.85
2022-11-25T18:34:41.190Z,85.63
2022-11-25T18:37:11.772Z,85.57
2022-11-25T18:39:38.535Z,85.86
2022-11-25T18:42:06.967Z,85.86
2022-11-25T18:44:43.456Z,86.03
2022-11-25T18:47:12.811Z,86.14
2022-11-25T18:49:39.507Z,85.78
2022-11-25T18:52:05.890Z,85.88
2022-11-25T18:54:32.405Z,86.18
2022-11-25T18:56:58.768Z,86.08
2022-11-25T18:59:31.832Z,85.71
2022-11-25T19:01:58.325Z,86.10
2022-11-25T19:04:24.766Z,85.92
2022-11-25T19:06:51.371Z,86.10
2022-11-25T19:09:17.788Z,85.83
2022-11-25T19:11:51.688Z,85.84
2022-11-25T19:14:32.181Z,86.00
2022-11-25T19:17:16.743Z,86.05
2022-11-25T19:19:45.952Z,86.22
2022-11-25T19:22:15.072Z,86.32
2022-11-25T19:24:41.976Z,86.44
2022-11-25T19:27:17.814Z,86.71
2022-11-25T19:29:44.833Z,86.75
2022-11-25T19:32:18.939Z,87.23
2022-11-25T19:34:48.445Z,87.27
2022-11-25T19:37:19.931Z,87.38
2022-11-25T19:39:48.106Z,87.15
2022-11-25T19:42:17.493Z,87.20
2022-11-25T19:44:45.407Z,87.00
2022-11-25T19:47:23.107Z,87.02
2022-11-25T19:49:52.837Z,87.33
2022-11-25T19:52:23.586Z,88.87
2022-11-25T19:54:50.008Z,87.76
2022-11-25T19:57:19.980Z,86.47
2022-11-25T19:59:46.534Z,86.76
2022-11-25T20:02:15.787Z,86.88
2022-11-25T20:04:44.536Z,86.74
2022-11-25T20:07:16.865Z,86.44
2022-11-25T20:09:43.880Z,86.97
2022-11-25T20:12:23.976Z,86.63
2022-11-25T20:14:51.474Z,87.25
2022-11-25T20:17:33.161Z,87.62
2022-11-25T20:20:10.045Z,87.72
2022-11-25T20:22:39.714Z,87.78
2022-11-25T20:25:06.964Z,87.37
2022-11-25T20:27:34.174Z,87.42
2022-11-25T20:30:00.803Z,87.56
2022-11-25T20:32:30.041Z,87.77
2022-11-25T20:35:00.991Z,87.51
2022-11-25T20:37:40.264Z,87.98
2022-11-25T20:40:17.043Z,87.56
2022-11-25T20:42:43.544Z,87.42
2022-11-25T20:45:21.605Z,87.38
2022-11-25T20:47:50.800Z,86.95
2022-11-25T20:50:18.917Z,86.87
2022-11-25T20:52:46.117Z,86.65
2022-11-25T20:55:16.668Z,86.10
2022-11-25T20:57:43.225Z,85.93
2022-11-25T21:00:35.692Z,85.72
2022-11-25T21:03:02.477Z,85.24
2022-11-25T21:05:28.855Z,85.92
2022-11-25T21:07:55.404Z,85.34
2022-11-25T21:10:28.221Z,85.38
2022-11-25T21:12:55.470Z,85.61
2022-11-25T21:15:25.204Z,86.16
2022-11-25T21:17:51.677Z,86.45
2022-11-25T21:20:19.203Z,86.50
2022-11-25T21:22:49.698Z,86.94
2022-11-25T21:25:19.477Z,87.04
2022-11-25T21:27:47.741Z,86.83
2022-11-25T21:30:26.990Z,87.25
2022-11-25T21:32:58.233Z,87.57
2022-11-25T21:35:30.286Z,87.67
2022-11-25T21:37:57.044Z,87.85
2022-11-25T21:40:38.123Z,88.25
2022-11-25T21:43:06.795Z,88.82
2022-11-25T21:45:33.265Z,88.44
2022-11-25T21:48:00.849Z,88.62
2022-11-25T21:50:29.757Z,88.28
2022-11-25T21:52:56.850Z,89.01
2022-11-25T21:55:23.278Z,89.23
2022-11-25T21:57:50.025Z,89.19
2022-11-25T22:00:25.461Z,89.97
2022-11-25T22:02:52.636Z,90.03
2022-11-25T22:05:21.688Z,89.65
2022-11-25T22:07:48.162Z,90.02
2022-11-25T22:10:16.014Z,90.54
2022-11-25T22:12:44.850Z,90.29
2022-11-25T22:15:18.462Z,90.34
2022-11-25T22:17:45.580Z,90.52
2022-11-25T22:20:33.382Z,90.99
2022-11-25T22:23:00.960Z,91.30
2022-11-25T22:25:30.085Z,91.45
2022-11-25T22:27:56.762Z,91.87
2022-11-25T22:30:24.142Z,91.72
2022-11-25T22:32:58.749Z,92.50
2022-11-25T22:35:25.211Z,92.39
2022-11-25T22:37:55.173Z,92.41
2022-11-25T22:40:23.424Z,92.28
2022-11-25T22:42:51.199Z,92.47
2022-11-25T22:45:29.512Z,92.50
2022-11-25T22:47:56.851Z,92.46
2022-11-25T22:50:27.440Z,91.58
2022-11-25T22:52:54.669Z,91.57
2022-11-25T22:55:25.441Z,91.42
2022-11-25T22:57:53.654Z,91.41
2022-11-25T23:00:26.610Z,90.39
2022-11-25T23:02:56.862Z,89.37
2022-11-25T23:05:33.420Z,89.39
2022-11-25T23:08:01.791Z,89.20
2022-11-25T23:10:31.055Z,88.80
2022-11-25T23:12:57.654Z,88.94
2022-11-25T23:15:24.793Z,88.72
2022-11-25T23:17:54.948Z,88.73
2022-11-25T23:20:26.110Z,88.24
2022-11-25T23:22:53.441Z,88.17
2022-11-25T23:25:21.771Z,87.94
2022-11-25T23:27:48.637Z,87.42
2022-11-25T23:30:17.655Z,87.60
2022-11-25T23:32:45.233Z,87.66
2022-11-25T23:35:17.181Z,87.21
2022-11-25T23:37:43.853Z,87.51
2022-11-25T23:40:19.521Z,87.13
2022-11-25T23:42:45.951Z,87.30
2022-11-25T23:45:17.263Z,87.37
2022-11-25T23:47:47.082Z,86.62
2022-11-25T23:50:25.121Z,87.56
2022-11-25T23:52:55.710Z,88.16
2022-11-25T23:55:29.001Z,88.01
2022-11-25T23:57:55.882Z,88.73
